Time;durP1;ratioP1;P1;durP2;ratioP2;P2;SDS_P1;SDS_P2;PMS_P1;PMS_P2;Temp;Humidity;BMP_temperature;BMP_pressure;BME280_temperature;BME280_humidity;BME280_pressure;Samples;Min_cycle;Max_cycle;Signal;HPM_P1;HPM_P2
2023/12/11 00:01:04;;;;;;;;;2.33;1.33;;;;;;;;5085982;28;29321;-70
2023/12/11 00:03:30;;;;;;;;;1.33;1.33;;;;;;;;5085720;28;28906;-70
2023/12/11 00:05:55;;;;;;;;;3.00;2.00;;;;;;;;5087420;28;28907;-70
2023/12/11 00:08:20;;;;;;;;;8.00;3.00;;;;;;;;5077795;28;28856;-69
2023/12/11 00:10:46;;;;;;;;;4.67;2.67;;;;;;;;5085095;27;28747;-71
2023/12/11 00:13:11;;;;;;;;;4.00;2.67;;;;;;;;5082152;28;28571;-71
2023/12/11 00:15:36;;;;;;;;;7.00;2.00;;;;;;;;5083924;28;28563;-71
2023/12/11 00:18:02;;;;;;;;;3.00;1.00;;;;;;;;5087645;28;28750;-69
2023/12/11 00:20:27;;;;;;;;;2.00;1.00;;;;;;;;5088401;27;28605;-70
2023/12/11 00:22:52;;;;;;;;;4.33;2.67;;;;;;;;5086687;27;29558;-70
2023/12/11 00:25:17;;;;;;;;;1.67;1.67;;;;;;;;5084713;28;28497;-70
2023/12/11 00:27:42;;;;;;;;;6.33;1.67;;;;;;;;5085160;28;29537;-68
2023/12/11 00:30:09;;;;;;;;;5.00;5.00;;;;;;;;5083027;27;29712;-70
2023/12/11 00:32:34;;;;;;;;;5.00;2.00;;;;;;;;5087509;27;28747;-71
2023/12/11 00:34:59;;;;;;;;;4.00;3.00;;;;;;;;5087154;28;28590;-70
2023/12/11 00:37:24;;;;;;;;;5.00;2.00;;;;;;;;5075540;28;29618;-71
2023/12/11 00:39:49;;;;;;;;;5.33;2.67;;;;;;;;5087110;28;28519;-70
2023/12/11 00:42:15;;;;;;;;;3.00;3.00;;;;;;;;5085450;28;28853;-70
2023/12/11 00:44:40;;;;;;;;;2.67;1.67;;;;;;;;5086568;28;28553;-69
2023/12/11 00:47:05;;;;;;;;;2.33;2.00;;;;;;;;5087744;28;28622;-70
2023/12/11 00:49:31;;;;;;;;;2.33;2.33;;;;;;;;5087437;28;29112;-69
2023/12/11 00:51:56;;;;;;;;;2.00;1.67;;;;;;;;5087141;28;28410;-71
2023/12/11 00:54:21;;;;;;;;;2.33;1.67;;;;;;;;5086202;28;28437;-70
2023/12/11 00:56:47;;;;;;;;;4.00;1.33;;;;;;;;5087699;28;28610;-69
2023/12/11 00:59:12;;;;;;;;;4.00;2.00;;;;;;;;5074008;27;28434;-68
2023/12/11 01:01:37;;;;;;;;;3.33;2.00;;;;;;;;5085469;28;28764;-71
2023/12/11 01:04:02;;;;;;;;;1.67;1.67;;;;;;;;5086780;28;28409;-71
2023/12/11 01:06:28;;;;;;;;;9.67;6.00;;;;;;;;5075490;28;31011;-69
2023/12/11 01:08:53;;;;;;;;;4.67;3.00;;;;;;;;5086497;28;29244;-73
2023/12/11 01:11:18;;;;;;;;;7.00;7.00;;;;;;;;5087271;27;29090;-70
2023/12/11 01:13:44;;;;;;;;;4.33;2.67;;;;;;;;5087756;28;28821;-79
2023/12/11 01:16:09;;;;;;;;;2.67;1.67;;;;;;;;5090530;28;28575;-80
2023/12/11 01:18:34;;;;;;;;;6.67;3.00;;;;;;;;5089500;27;29125;-79
2023/12/11 01:21:00;;;;;;;;;2.67;2.67;;;;;;;;5087487;27;29056;-79
2023/12/11 01:23:27;;;;;;;;;8.67;4.67;;;;;;;;5090645;28;28892;-79
2023/12/11 01:25:52;;;;;;;;;6.67;3.33;;;;;;;;5087035;28;28708;-78
2023/12/11 01:28:18;;;;;;;;;5.67;4.67;;;;;;;;5088886;28;28378;-70
2023/12/11 01:30:43;;;;;;;;;7.33;3.67;;;;;;;;5085599;28;28627;-71
2023/12/11 01:33:13;;;;;;;;;6.67;2.00;;;;;;;;5086117;27;28479;-71
2023/12/11 01:35:38;;;;;;;;;6.67;3.33;;;;;;;;5079557;28;29717;-69
2023/12/11 01:38:03;;;;;;;;;3.00;3.00;;;;;;;;5089510;28;29379;-79
2023/12/11 01:40:29;;;;;;;;;5.67;2.00;;;;;;;;5088376;28;28453;-79
2023/12/11 01:42:54;;;;;;;;;3.67;2.67;;;;;;;;5084284;28;28853;-81
2023/12/11 01:45:19;;;;;;;;;3.33;2.33;;;;;;;;5091526;27;28826;-78
2023/12/11 01:47:44;;;;;;;;;7.00;2.00;;;;;;;;5092556;27;28685;-79
2023/12/11 01:50:10;;;;;;;;;7.00;2.00;;;;;;;;5086640;28;29318;-78
2023/12/11 01:52:36;;;;;;;;;3.67;3.33;;;;;;;;5087830;27;28798;-79
2023/12/11 01:55:02;;;;;;;;;4.67;1.67;;;;;;;;5087991;28;28924;-77
2023/12/11 01:57:28;;;;;;;;;8.00;4.00;;;;;;;;5084344;28;29292;-68
2023/12/11 01:59:53;;;;;;;;;5.00;3.00;;;;;;;;5085997;27;28503;-68
2023/12/11 02:02:20;;;;;;;;;2.33;2.00;;;;;;;;5085426;28;28547;-69
2023/12/11 02:04:45;;;;;;;;;4.67;2.00;;;;;;;;5085209;27;28432;-67
2023/12/11 02:07:10;;;;;;;;;10.00;4.00;;;;;;;;5084140;28;29758;-70
2023/12/11 02:09:36;;;;;;;;;3.33;2.00;;;;;;;;5084782;28;28770;-67
2023/12/11 02:12:01;;;;;;;;;3.50;2.50;;;;;;;;5083532;28;29219;-71
2023/12/11 02:14:26;;;;;;;;;2.33;1.33;;;;;;;;5078881;27;28665;-69
2023/12/11 02:16:52;;;;;;;;;3.67;2.00;;;;;;;;5081475;28;29957;-69
2023/12/11 02:19:17;;;;;;;;;1.00;1.00;;;;;;;;5083768;28;28944;-70
2023/12/11 02:21:43;;;;;;;;;7.67;5.33;;;;;;;;5085945;27;28606;-68
2023/12/11 02:24:10;;;;;;;;;6.00;5.00;;;;;;;;5083366;28;29221;-69
2023/12/11 02:26:35;;;;;;;;;2.33;2.33;;;;;;;;5085491;28;29330;-70
2023/12/11 02:29:00;;;;;;;;;4.67;2.33;;;;;;;;5083505;28;28494;-69
2023/12/11 02:31:26;;;;;;;;;5.33;3.00;;;;;;;;5084694;27;28539;-68
2023/12/11 02:33:51;;;;;;;;;5.67;2.67;;;;;;;;5085121;28;28574;-70
2023/12/11 02:36:16;;;;;;;;;9.33;2.67;;;;;;;;5085557;28;28601;-70
2023/12/11 02:38:42;;;;;;;;;5.00;3.33;;;;;;;;5084833;27;28543;-68
2023/12/11 02:41:07;;;;;;;;;6.33;3.33;;;;;;;;5079560;28;28492;-69
2023/12/11 02:43:33;;;;;;;;;3.67;3.67;;;;;;;;5082112;28;28586;-68
2023/12/11 02:45:58;;;;;;;;;5.00;2.67;;;;;;;;5084083;27;29310;-68
2023/12/11 02:48:23;;;;;;;;;4.00;2.67;;;;;;;;5084472;27;28515;-71
2023/12/11 02:50:49;;;;;;;;;4.33;1.67;;;;;;;;5085429;27;28523;-68
2023/12/11 02:53:14;;;;;;;;;3.00;2.00;;;;;;;;5087486;27;28627;-69
2023/12/11 02:55:39;;;;;;;;;3.33;2.00;;;;;;;;5086456;28;30672;-69
2023/12/11 02:58:05;;;;;;;;;7.00;5.33;;;;;;;;5086168;28;28506;-68
2023/12/11 03:00:30;;;;;;;;;3.67;1.67;;;;;;;;5088357;27;28552;-70
2023/12/11 03:02:56;;;;;;;;;6.00;2.00;;;;;;;;5088179;28;28674;-69
2023/12/11 03:05:22;;;;;;;;;1.00;1.00;;;;;;;;5088663;28;28605;-68
2023/12/11 03:07:47;;;;;;;;;5.00;4.00;;;;;;;;5088541;28;28919;-68
2023/12/11 03:10:13;;;;;;;;;6.67;3.33;;;;;;;;5087193;27;28480;-67
2023/12/11 03:12:38;;;;;;;;;1.67;1.67;;;;;;;;5080056;27;29785;-69
2023/12/11 03:15:04;;;;;;;;;5.33;1.67;;;;;;;;5084863;27;28575;-70
2023/12/11 03:17:29;;;;;;;;;10.00;2.50;;;;;;;;5087049;27;28437;-69
2023/12/11 03:19:55;;;;;;;;;7.00;2.00;;;;;;;;5093191;27;28618;-69
2023/12/11 03:22:24;;;;;;;;;6.33;3.00;;;;;;;;5089115;27;29982;-70
2023/12/11 03:24:50;;;;;;;;;3.33;2.00;;;;;;;;5088387;28;28465;-70
2023/12/11 03:27:16;;;;;;;;;5.00;3.33;;;;;;;;5084021;27;28495;-70
2023/12/11 03:29:41;;;;;;;;;3.67;2.67;;;;;;;;5093374;27;28743;-78
2023/12/11 03:32:07;;;;;;;;;7.67;4.00;;;;;;;;5094324;27;28547;-78
2023/12/11 03:34:32;;;;;;;;;4.00;2.33;;;;;;;;5093615;27;28507;-78
2023/12/11 03:36:57;;;;;;;;;3.00;3.00;;;;;;;;5089882;28;28866;-77
2023/12/11 03:39:22;;;;;;;;;3.00;3.00;;;;;;;;5088282;28;28452;-78
2023/12/11 03:41:48;;;;;;;;;7.00;3.00;;;;;;;;5094210;28;29151;-79
2023/12/11 03:44:13;;;;;;;;;7.33;2.00;;;;;;;;5091222;27;29177;-78
2023/12/11 03:46:38;;;;;;;;;6.00;1.67;;;;;;;;5094260;28;28587;-79
2023/12/11 03:49:04;;;;;;;;;8.33;3.33;;;;;;;;5095713;27;28369;-78
2023/12/11 03:51:29;;;;;;;;;4.00;2.00;;;;;;;;5093240;27;27908;-79
2023/12/11 03:53:54;;;;;;;;;8.00;4.00;;;;;;;;5088660;28;28582;-77
2023/12/11 03:56:20;;;;;;;;;2.67;1.33;;;;;;;;5092509;28;28358;-80
2023/12/11 03:58:45;;;;;;;;;4.33;2.67;;;;;;;;5094676;27;29339;-79
2023/12/11 04:01:10;;;;;;;;;4.00;4.00;;;;;;;;5091264;28;29534;-79
2023/12/11 04:03:36;;;;;;;;;5.00;2.00;;;;;;;;5096536;28;28551;-78
2023/12/11 04:06:01;;;;;;;;;3.75;1.50;;;;;;;;5099673;28;28536;-80
2023/12/11 04:08:27;;;;;;;;;7.33;3.00;;;;;;;;5093471;28;28443;-78
2023/12/11 04:10:52;;;;;;;;;4.67;3.33;;;;;;;;5099836;27;27945;-79
2023/12/11 04:13:17;;;;;;;;;9.00;3.00;;;;;;;;5088103;28;28352;-78
2023/12/11 04:15:42;;;;;;;;;6.00;3.00;;;;;;;;5101866;28;28149;-79
2023/12/11 04:18:08;;;;;;;;;2.00;2.00;;;;;;;;5103061;28;28166;-79
2023/12/11 04:20:33;;;;;;;;;5.67;3.00;;;;;;;;5098703;27;31054;-80
2023/12/11 04:22:58;;;;;;;;;4.00;2.67;;;;;;;;5101249;28;28348;-78
2023/12/11 04:25:23;;;;;;;;;5.00;2.00;;;;;;;;5100613;27;28839;-78
2023/12/11 04:27:49;;;;;;;;;4.00;3.00;;;;;;;;5096144;28;28167;-78
2023/12/11 04:30:14;;;;;;;;;3.00;3.00;;;;;;;;5092940;28;28461;-79
2023/12/11 04:32:39;;;;;;;;;7.00;4.00;;;;;;;;5092933;27;28265;-77
2023/12/11 04:35:04;;;;;;;;;4.00;2.33;;;;;;;;5087427;27;27967;-78
2023/12/11 04:37:30;;;;;;;;;4.00;3.33;;;;;;;;5080437;28;28608;-78
2023/12/11 04:39:55;;;;;;;;;4.00;3.33;;;;;;;;5089898;28;28370;-79
2023/12/11 04:42:20;;;;;;;;;12.00;4.33;;;;;;;;5089355;28;29008;-79
2023/12/11 04:44:45;;;;;;;;;6.33;3.00;;;;;;;;5086993;27;28363;-78
2023/12/11 04:47:11;;;;;;;;;5.00;4.00;;;;;;;;5087692;28;28465;-78
2023/12/11 04:49:36;;;;;;;;;7.67;3.33;;;;;;;;5090695;28;28546;-79
2023/12/11 04:52:01;;;;;;;;;5.67;4.00;;;;;;;;5089463;28;30254;-79
2023/12/11 04:54:26;;;;;;;;;2.67;1.00;;;;;;;;5081094;27;28640;-78
2023/12/11 04:56:51;;;;;;;;;5.67;2.33;;;;;;;;5083911;28;28745;-77
2023/12/11 04:59:17;;;;;;;;;6.00;3.00;;;;;;;;5083331;28;28491;-79
2023/12/11 05:01:42;;;;;;;;;6.33;3.33;;;;;;;;5087066;27;28832;-79
2023/12/11 05:04:07;;;;;;;;;5.33;3.00;;;;;;;;5061830;28;28577;-80
2023/12/11 05:06:32;;;;;;;;;3.67;1.00;;;;;;;;5075805;27;29027;-69
2023/12/11 05:08:57;;;;;;;;;4.00;3.00;;;;;;;;5087216;27;28895;-78
2023/12/11 05:11:23;;;;;;;;;7.33;3.00;;;;;;;;5081107;28;29368;-78
2023/12/11 05:13:48;;;;;;;;;4.67;3.00;;;;;;;;5089633;28;28906;-77
2023/12/11 05:16:13;;;;;;;;;6.33;2.67;;;;;;;;5090431;27;29153;-71
2023/12/11 05:18:39;;;;;;;;;7.00;3.33;;;;;;;;5083872;27;28543;-70
2023/12/11 05:21:10;;;;;;;;;5.67;2.00;;;;;;;;5082887;27;28469;-70
2023/12/11 05:23:35;;;;;;;;;8.75;3.00;;;;;;;;5082918;28;28664;-68
2023/12/11 05:26:01;;;;;;;;;6.67;6.67;;;;;;;;5087197;28;28492;-69
2023/12/11 05:28:26;;;;;;;;;8.33;6.00;;;;;;;;5087582;27;28470;-70
2023/12/11 05:30:51;;;;;;;;;5.33;4.00;;;;;;;;5062826;28;30984;-69
2023/12/11 05:33:17;;;;;;;;;7.67;2.67;;;;;;;;5076250;28;28926;-71
2023/12/11 05:35:42;;;;;;;;;6.00;3.00;;;;;;;;5085279;27;28821;-80
2023/12/11 05:38:07;;;;;;;;;15.33;8.00;;;;;;;;5089139;28;29120;-79
2023/12/11 05:40:33;;;;;;;;;9.67;5.00;;;;;;;;5084206;28;29290;-79
2023/12/11 05:42:58;;;;;;;;;8.33;7.33;;;;;;;;5083622;28;28270;-81
2023/12/11 05:45:23;;;;;;;;;10.33;6.67;;;;;;;;5083276;28;28838;-77
2023/12/11 05:47:49;;;;;;;;;17.00;9.67;;;;;;;;5079986;28;28530;-80
2023/12/11 05:50:14;;;;;;;;;12.67;11.00;;;;;;;;5076927;28;29936;-77
2023/12/11 05:52:39;;;;;;;;;7.67;4.67;;;;;;;;5085460;28;28900;-78
2023/12/11 05:55:05;;;;;;;;;9.33;5.00;;;;;;;;5084584;28;28680;-79
2023/12/11 05:57:30;;;;;;;;;4.67;4.00;;;;;;;;5085974;28;28816;-75
2023/12/11 05:59:55;;;;;;;;;6.00;4.67;;;;;;;;5083966;28;28538;-76
2023/12/11 06:02:21;;;;;;;;;6.67;2.67;;;;;;;;5085565;28;28924;-76
2023/12/11 06:04:49;;;;;;;;;9.67;5.00;;;;;;;;5082408;27;28576;-77
2023/12/11 06:07:43;;;;;;;;;5.67;4.33;;;;;;;;5086665;28;29659;-82
2023/12/11 06:10:08;;;;;;;;;6.50;3.25;;;;;;;;5086963;28;28604;-80
2023/12/11 06:12:36;;;;;;;;;5.33;4.33;;;;;;;;5079472;28;28534;-81
2023/12/11 06:15:02;;;;;;;;;3.50;3.00;;;;;;;;5083242;28;28686;-79
2023/12/11 06:17:27;;;;;;;;;4.00;3.67;;;;;;;;5075607;28;29156;-81
2023/12/11 06:19:52;;;;;;;;;4.33;2.33;;;;;;;;5087976;27;28566;-83
2023/12/11 06:22:18;;;;;;;;;4.67;3.33;;;;;;;;5089131;27;28838;-79
2023/12/11 06:24:43;;;;;;;;;7.67;3.00;;;;;;;;5082155;28;28647;-78
2023/12/11 06:27:09;;;;;;;;;5.00;3.00;;;;;;;;5077092;27;29009;-77
2023/12/11 06:29:35;;;;;;;;;7.67;3.67;;;;;;;;5084393;28;29085;-80
2023/12/11 06:32:00;;;;;;;;;9.67;3.67;;;;;;;;5081902;28;28909;-77
2023/12/11 06:34:26;;;;;;;;;2.00;2.00;;;;;;;;5088826;27;28677;-76
2023/12/11 06:36:51;;;;;;;;;9.33;3.33;;;;;;;;5090255;28;28506;-78
2023/12/11 06:39:17;;;;;;;;;3.00;1.00;;;;;;;;5090084;28;28213;-75
2023/12/11 06:41:42;;;;;;;;;5.50;4.00;;;;;;;;5089015;28;29547;-75
2023/12/11 06:44:09;;;;;;;;;5.00;4.00;;;;;;;;5088546;28;28509;-76
2023/12/11 06:46:36;;;;;;;;;5.00;2.67;;;;;;;;5090087;27;28584;-77
2023/12/11 06:49:02;;;;;;;;;7.50;2.50;;;;;;;;5082230;28;29058;-77
2023/12/11 06:51:29;;;;;;;;;5.67;2.33;;;;;;;;5083084;28;28411;-76
2023/12/11 06:53:58;;;;;;;;;9.33;3.00;;;;;;;;5088642;27;28832;-78
2023/12/11 06:56:24;;;;;;;;;8.00;4.00;;;;;;;;5089937;27;28493;-78
2023/12/11 06:58:49;;;;;;;;;4.67;2.00;;;;;;;;5089024;27;30442;-80
2023/12/11 07:01:15;;;;;;;;;7.00;3.00;;;;;;;;5101183;27;28992;-80
2023/12/11 07:03:50;;;;;;;;;8.67;3.33;;;;;;;;5094467;27;28758;-82
2023/12/11 07:06:17;;;;;;;;;7.00;2.67;;;;;;;;5094695;28;28897;-74
2023/12/11 07:08:42;;;;;;;;;7.33;4.00;;;;;;;;5080956;27;29354;-82
2023/12/11 07:11:08;;;;;;;;;8.33;2.67;;;;;;;;5088156;28;29178;-85
2023/12/11 07:13:33;;;;;;;;;8.33;4.00;;;;;;;;5085007;28;28445;-82
2023/12/11 07:15:59;;;;;;;;;2.00;2.00;;;;;;;;5090284;28;28570;-81
2023/12/11 07:18:24;;;;;;;;;4.00;3.00;;;;;;;;5088948;28;29073;-81
2023/12/11 07:20:49;;;;;;;;;2.33;1.33;;;;;;;;5095102;27;28594;-80
2023/12/11 07:23:15;;;;;;;;;8.00;3.00;;;;;;;;5085478;28;28331;-80
2023/12/11 07:25:40;;;;;;;;;3.67;3.67;;;;;;;;5088355;28;28804;-79
2023/12/11 07:28:06;;;;;;;;;9.33;2.67;;;;;;;;5078653;28;28712;-80
2023/12/11 07:30:35;;;;;;;;;9.75;2.75;;;;;;;;5090406;27;29796;-78
2023/12/11 07:33:00;;;;;;;;;3.67;3.67;;;;;;;;5074860;28;29185;-79
2023/12/11 07:35:25;;;;;;;;;2.33;2.33;;;;;;;;5083520;27;30350;-81
2023/12/11 07:37:51;;;;;;;;;7.33;4.67;;;;;;;;5085419;27;29592;-81
2023/12/11 07:40:17;;;;;;;;;8.00;5.67;;;;;;;;5079735;28;28492;-79
2023/12/11 07:42:42;;;;;;;;;9.00;4.33;;;;;;;;5083615;27;29089;-79
2023/12/11 07:45:08;;;;;;;;;4.67;3.00;;;;;;;;5083669;28;29107;-77
2023/12/11 07:47:35;;;;;;;;;5.33;5.00;;;;;;;;5082387;27;29229;-80
2023/12/11 07:50:02;;;;;;;;;6.25;3.75;;;;;;;;5091367;27;29043;-79
2023/12/11 07:52:28;;;;;;;;;4.33;3.00;;;;;;;;5088935;27;29037;-77
2023/12/11 07:54:54;;;;;;;;;3.00;0.00;;;;;;;;5073425;27;28749;-79
2023/12/11 07:57:19;;;;;;;;;8.00;6.33;;;;;;;;5081178;28;28865;-78
2023/12/11 07:59:44;;;;;;;;;8.00;3.67;;;;;;;;5077698;28;28154;-79
2023/12/11 08:02:10;;;;;;;;;12.67;3.67;;;;;;;;5089894;28;28497;-80
2023/12/11 08:04:37;;;;;;;;;4.00;3.00;;;;;;;;5089838;27;28878;-79
2023/12/11 08:07:02;;;;;;;;;6.67;3.00;;;;;;;;5084602;28;28809;-79
2023/12/11 08:09:28;;;;;;;;;7.00;4.00;;;;;;;;5072474;28;28870;-81
2023/12/11 08:11:53;;;;;;;;;3.00;3.00;;;;;;;;5071890;27;28499;-80
2023/12/11 08:14:18;;;;;;;;;7.67;5.00;;;;;;;;5084508;28;28483;-80
2023/12/11 08:16:44;;;;;;;;;5.67;3.00;;;;;;;;5089552;28;28488;-79
2023/12/11 08:19:09;;;;;;;;;10.67;8.33;;;;;;;;5087684;27;28975;-79
2023/12/11 08:21:34;;;;;;;;;6.33;4.00;;;;;;;;5080143;27;28451;-80
2023/12/11 08:23:59;;;;;;;;;10.00;5.00;;;;;;;;5079675;28;29310;-78
2023/12/11 08:26:25;;;;;;;;;7.00;3.00;;;;;;;;5083775;28;30416;-78
2023/12/11 08:28:50;;;;;;;;;6.00;4.33;;;;;;;;5083902;27;28564;-79
2023/12/11 08:31:16;;;;;;;;;7.33;4.33;;;;;;;;5079006;28;28848;-77
2023/12/11 08:33:41;;;;;;;;;3.33;2.33;;;;;;;;5088438;27;28452;-77
2023/12/11 08:36:07;;;;;;;;;8.67;4.00;;;;;;;;5086918;28;30310;-79
2023/12/11 08:38:33;;;;;;;;;14.33;8.00;;;;;;;;5073600;28;28974;-81
2023/12/11 08:40:59;;;;;;;;;8.00;7.33;;;;;;;;5090654;28;28623;-82
2023/12/11 08:43:24;;;;;;;;;4.33;4.33;;;;;;;;5068798;28;30627;-80
2023/12/11 08:45:49;;;;;;;;;11.33;3.33;;;;;;;;5091174;28;28498;-81
2023/12/11 08:48:15;;;;;;;;;7.67;4.00;;;;;;;;5076304;27;28565;-81
2023/12/11 08:50:40;;;;;;;;;8.00;2.67;;;;;;;;5089538;27;28546;-81
2023/12/11 08:53:05;;;;;;;;;6.67;3.00;;;;;;;;5088251;28;28999;-81
2023/12/11 08:55:30;;;;;;;;;7.00;4.00;;;;;;;;5089644;28;29597;-81
2023/12/11 08:57:56;;;;;;;;;8.00;4.67;;;;;;;;5104911;27;28404;-82
2023/12/11 09:00:21;;;;;;;;;7.00;3.67;;;;;;;;5084715;28;28497;-83
2023/12/11 09:02:47;;;;;;;;;5.33;4.00;;;;;;;;5088093;28;28608;-83
2023/12/11 09:05:12;;;;;;;;;7.67;4.00;;;;;;;;5090799;28;28405;-82
2023/12/11 09:07:37;;;;;;;;;5.67;4.00;;;;;;;;5090954;27;28390;-82
2023/12/11 09:10:04;;;;;;;;;6.67;5.33;;;;;;;;5091222;27;28791;-81
2023/12/11 09:12:29;;;;;;;;;6.00;4.00;;;;;;;;5086821;28;28454;-81
2023/12/11 09:14:54;;;;;;;;;5.67;3.00;;;;;;;;5085910;28;28781;-79
2023/12/11 09:17:19;;;;;;;;;7.00;4.00;;;;;;;;5092829;28;28706;-81
2023/12/11 09:19:44;;;;;;;;;3.00;2.67;;;;;;;;5095193;27;28502;-83
2023/12/11 09:22:11;;;;;;;;;7.67;4.67;;;;;;;;5102889;27;29517;-80
2023/12/11 09:24:36;;;;;;;;;6.33;4.00;;;;;;;;5070343;28;30150;-81
2023/12/11 09:27:03;;;;;;;;;6.67;4.00;;;;;;;;5088495;28;28594;-82
2023/12/11 09:29:28;;;;;;;;;8.00;3.67;;;;;;;;5073899;27;28795;-80
2023/12/11 09:31:54;;;;;;;;;8.33;4.67;;;;;;;;5084212;27;28668;-81
2023/12/11 09:34:20;;;;;;;;;10.33;6.33;;;;;;;;5080560;28;29399;-81
2023/12/11 09:36:45;;;;;;;;;9.33;4.00;;;;;;;;5087619;28;28621;-81
2023/12/11 09:39:11;;;;;;;;;7.67;2.67;;;;;;;;5082564;28;28489;-82
2023/12/11 09:41:36;;;;;;;;;5.33;2.67;;;;;;;;5086725;28;28606;-81
2023/12/11 09:44:02;;;;;;;;;3.00;1.67;;;;;;;;5089500;28;29959;-81
2023/12/11 09:46:29;;;;;;;;;4.50;4.50;;;;;;;;5082392;28;28687;-82
2023/12/11 09:48:55;;;;;;;;;3.33;2.00;;;;;;;;5090235;27;28519;-82
2023/12/11 09:51:20;;;;;;;;;7.67;3.33;;;;;;;;5088594;28;29129;-84
2023/12/11 09:53:47;;;;;;;;;6.67;3.00;;;;;;;;5090644;28;28562;-82
2023/12/11 09:56:12;;;;;;;;;6.00;5.00;;;;;;;;5083427;27;28615;-81
2023/12/11 09:58:39;;;;;;;;;8.33;3.33;;;;;;;;5088460;28;28797;-81
2023/12/11 10:01:04;;;;;;;;;6.67;4.67;;;;;;;;5088938;28;28837;-79
2023/12/11 10:03:30;;;;;;;;;7.67;3.33;;;;;;;;5088868;28;29395;-80
2023/12/11 10:05:59;;;;;;;;;8.00;3.00;;;;;;;;5093439;27;28467;-81
2023/12/11 10:08:25;;;;;;;;;10.00;3.33;;;;;;;;5079492;28;29018;-82
2023/12/11 10:11:07;;;;;;;;;6.00;3.33;;;;;;;;5092773;27;28928;-84
2023/12/11 10:13:32;;;;;;;;;6.00;3.00;;;;;;;;5097850;27;30701;-84
2023/12/11 10:15:58;;;;;;;;;11.33;4.67;;;;;;;;5091467;27;29440;-83
2023/12/11 10:18:24;;;;;;;;;7.00;4.33;;;;;;;;5085836;27;28396;-83
2023/12/11 10:20:52;;;;;;;;;7.67;3.00;;;;;;;;5092830;27;28466;-82
2023/12/11 10:23:20;;;;;;;;;6.00;4.00;;;;;;;;5086508;27;28909;-81
2023/12/11 10:25:47;;;;;;;;;5.00;3.50;;;;;;;;5086734;28;28570;-76
2023/12/11 10:28:14;;;;;;;;;4.00;2.25;;;;;;;;5089798;27;28525;-81
2023/12/11 10:31:06;;;;;;;;;4.00;4.00;;;;;;;;5088389;27;28598;-79
2023/12/11 10:33:31;;;;;;;;;4.75;4.00;;;;;;;;5085633;27;29494;-80
2023/12/11 10:36:11;;;;;;;;;7.67;5.33;;;;;;;;5088113;27;28692;-80
2023/12/11 10:38:37;;;;;;;;;7.00;3.67;;;;;;;;5070102;28;28811;-79
2023/12/11 10:41:02;;;;;;;;;5.00;2.67;;;;;;;;5080359;28;29105;-77
2023/12/11 10:43:38;;;;;;;;;7.00;4.00;;;;;;;;5083381;27;29960;-77
2023/12/11 10:46:06;;;;;;;;;9.00;3.25;;;;;;;;5072036;28;28697;-78
2023/12/11 10:48:33;;;;;;;;;3.00;2.00;;;;;;;;5080188;27;28687;-77
2023/12/11 10:50:59;;;;;;;;;6.67;2.67;;;;;;;;5087968;28;28831;-77
2023/12/11 10:53:25;;;;;;;;;7.33;4.33;;;;;;;;5089393;27;30864;-76
2023/12/11 10:55:51;;;;;;;;;3.67;3.00;;;;;;;;5086242;27;29086;-75
2023/12/11 10:58:16;;;;;;;;;8.00;4.33;;;;;;;;5086874;27;28760;-75
2023/12/11 11:00:43;;;;;;;;;6.00;5.67;;;;;;;;5080135;28;29043;-75
2023/12/11 11:03:10;;;;;;;;;4.67;3.00;;;;;;;;5085676;28;29337;-75
2023/12/11 11:05:35;;;;;;;;;6.00;4.00;;;;;;;;5086974;27;28488;-76
2023/12/11 11:08:09;;;;;;;;;5.33;4.00;;;;;;;;5077564;28;28395;-76
2023/12/11 11:10:39;;;;;;;;;3.33;2.00;;;;;;;;5082999;28;28879;-71
2023/12/11 11:13:16;;;;;;;;;5.75;3.00;;;;;;;;5085853;27;29565;-71
2023/12/11 11:16:02;;;;;;;;;4.25;3.50;;;;;;;;5090366;28;28486;-79
2023/12/11 11:22:06;;;;;;;;;11.67;6.00;;;;;;;;5089683;27;28718;-76
2023/12/11 11:24:34;;;;;;;;;5.33;4.00;;;;;;;;5088856;28;29675;-73
2023/12/11 11:27:00;;;;;;;;;5.67;3.00;;;;;;;;5086906;27;28869;-72
2023/12/11 11:29:41;;;;;;;;;5.67;3.33;;;;;;;;5089257;27;29117;-74
2023/12/11 11:32:06;;;;;;;;;4.00;4.00;;;;;;;;5086883;28;29901;-74
2023/12/11 11:34:40;;;;;;;;;7.00;3.00;;;;;;;;5090207;28;29301;-81
2023/12/11 11:37:11;;;;;;;;;6.00;4.00;;;;;;;;5089947;27;28954;-83
2023/12/11 11:39:55;;;;;;;;;3.00;3.00;;;;;;;;5079824;27;28528;-80
2023/12/11 11:42:20;;;;;;;;;6.75;2.75;;;;;;;;5075296;27;29045;-83
2023/12/11 11:44:46;;;;;;;;;3.67;3.00;;;;;;;;5078409;27;29672;-81
2023/12/11 11:47:16;;;;;;;;;6.67;3.00;;;;;;;;5073657;27;28643;-81
2023/12/11 11:49:41;;;;;;;;;6.67;3.00;;;;;;;;5080362;27;28581;-80
2023/12/11 11:52:07;;;;;;;;;7.67;3.67;;;;;;;;5084125;27;30079;-82
2023/12/11 11:54:35;;;;;;;;;5.00;4.00;;;;;;;;5082319;27;30153;-82
2023/12/11 11:57:01;;;;;;;;;5.25;4.00;;;;;;;;5074415;28;28912;-81
2023/12/11 11:59:26;;;;;;;;;3.33;3.00;;;;;;;;5085984;27;28677;-83
2023/12/11 12:01:52;;;;;;;;;5.33;2.00;;;;;;;;5085190;27;28868;-80
2023/12/11 12:04:31;;;;;;;;;3.25;3.25;;;;;;;;5086226;27;28592;-81
2023/12/11 12:06:58;;;;;;;;;3.50;3.25;;;;;;;;5095259;27;28578;-81
2023/12/11 12:09:24;;;;;;;;;5.67;3.00;;;;;;;;5088634;27;28657;-82
2023/12/11 12:11:52;;;;;;;;;4.67;2.00;;;;;;;;5090559;28;29656;-81
2023/12/11 12:14:17;;;;;;;;;7.33;3.33;;;;;;;;5090937;27;30042;-84
2023/12/11 12:16:43;;;;;;;;;3.67;3.33;;;;;;;;5096838;27;28537;-84
2023/12/11 12:19:08;;;;;;;;;4.00;2.33;;;;;;;;5095500;28;28661;-80
2023/12/11 12:21:58;;;;;;;;;5.00;3.33;;;;;;;;5091931;27;28629;-80
2023/12/11 12:24:24;;;;;;;;;5.50;2.25;;;;;;;;5085446;27;28476;-81
2023/12/11 12:26:53;;;;;;;;;3.25;2.50;;;;;;;;5084344;28;28570;-79
2023/12/11 12:29:19;;;;;;;;;2.00;2.00;;;;;;;;5089832;28;28466;-81
2023/12/11 12:31:46;;;;;;;;;4.67;3.00;;;;;;;;5083820;28;29694;-80
2023/12/11 12:34:11;;;;;;;;;2.33;2.00;;;;;;;;5081719;27;28509;-80
2023/12/11 12:36:37;;;;;;;;;5.00;3.00;;;;;;;;5109029;27;28388;-78
2023/12/11 12:39:04;;;;;;;;;5.00;2.33;;;;;;;;5094082;27;28493;-79
2023/12/11 12:41:30;;;;;;;;;5.25;3.75;;;;;;;;5093715;27;28745;-80
2023/12/11 12:43:59;;;;;;;;;3.00;3.00;;;;;;;;5092439;28;28560;-79
2023/12/11 12:46:26;;;;;;;;;4.50;1.75;;;;;;;;5087177;28;28576;-79
2023/12/11 12:48:51;;;;;;;;;6.00;3.67;;;;;;;;5076499;28;28446;-80
2023/12/11 12:51:16;;;;;;;;;3.00;2.00;;;;;;;;5095975;28;29442;-80
2023/12/11 12:53:46;;;;;;;;;4.00;3.67;;;;;;;;5082034;27;29253;-80
2023/12/11 12:56:15;;;;;;;;;3.00;2.00;;;;;;;;5091993;28;29813;-80
2023/12/11 12:58:40;;;;;;;;;8.75;2.00;;;;;;;;5091981;28;28626;-79
2023/12/11 13:01:05;;;;;;;;;5.00;3.67;;;;;;;;5099995;28;28575;-78
2023/12/11 13:03:31;;;;;;;;;8.00;3.33;;;;;;;;5100400;28;29363;-78
2023/12/11 13:05:57;;;;;;;;;5.00;2.33;;;;;;;;5097579;28;27886;-79
2023/12/11 13:08:23;;;;;;;;;5.25;3.00;;;;;;;;5102040;27;27817;-80
2023/12/11 13:10:52;;;;;;;;;7.00;2.67;;;;;;;;5101988;27;28513;-80
2023/12/11 13:13:21;;;;;;;;;5.00;2.67;;;;;;;;5094678;27;29815;-79
2023/12/11 13:15:47;;;;;;;;;5.75;3.00;;;;;;;;5098771;28;28747;-80
2023/12/11 13:18:15;;;;;;;;;2.33;2.00;;;;;;;;5100169;28;28551;-80
2023/12/11 13:20:41;;;;;;;;;6.00;4.00;;;;;;;;5099635;27;28485;-79
2023/12/11 13:23:06;;;;;;;;;2.33;2.00;;;;;;;;5100703;28;28008;-81
2023/12/11 13:25:31;;;;;;;;;8.00;3.00;;;;;;;;5102124;27;28032;-80
2023/12/11 13:27:57;;;;;;;;;6.33;3.33;;;;;;;;5097971;27;28496;-80
2023/12/11 13:30:22;;;;;;;;;5.67;3.00;;;;;;;;5098157;27;28761;-79
2023/12/11 13:32:48;;;;;;;;;8.33;4.33;;;;;;;;5091744;27;28548;-78
2023/12/11 13:35:13;;;;;;;;;5.67;3.00;;;;;;;;5089916;28;28722;-80
2023/12/11 13:37:38;;;;;;;;;7.67;4.00;;;;;;;;5096234;28;29069;-80
2023/12/11 13:40:07;;;;;;;;;3.33;3.00;;;;;;;;5089493;27;28902;-81
2023/12/11 13:42:32;;;;;;;;;2.50;2.50;;;;;;;;5089856;27;28079;-80
2023/12/11 13:44:58;;;;;;;;;6.33;4.33;;;;;;;;5092811;28;28970;-79
2023/12/11 13:47:24;;;;;;;;;5.67;2.00;;;;;;;;5089729;27;28499;-79
2023/12/11 13:49:50;;;;;;;;;5.00;3.67;;;;;;;;5088134;28;29539;-79
2023/12/11 13:52:15;;;;;;;;;4.67;1.67;;;;;;;;5093883;27;30496;-81
2023/12/11 13:54:41;;;;;;;;;6.00;3.00;;;;;;;;5095945;27;28480;-79
2023/12/11 13:57:06;;;;;;;;;5.00;3.00;;;;;;;;5093585;28;28731;-79
2023/12/11 13:59:31;;;;;;;;;3.33;2.67;;;;;;;;5096162;28;27921;-78
2023/12/11 14:01:57;;;;;;;;;5.00;2.67;;;;;;;;5095315;28;28487;-79
2023/12/11 14:04:24;;;;;;;;;7.67;3.33;;;;;;;;5094746;27;28444;-80
2023/12/11 14:06:49;;;;;;;;;6.00;2.00;;;;;;;;5087344;27;28571;-79
2023/12/11 14:09:14;;;;;;;;;5.33;3.33;;;;;;;;5095176;28;29487;-80
2023/12/11 14:11:40;;;;;;;;;3.00;2.00;;;;;;;;5090267;28;28995;-80
2023/12/11 14:14:06;;;;;;;;;6.00;4.00;;;;;;;;5099282;27;28837;-81
2023/12/11 14:16:31;;;;;;;;;5.00;2.67;;;;;;;;5090469;27;28888;-79
2023/12/11 14:18:57;;;;;;;;;3.67;1.33;;;;;;;;5088754;28;30235;-79
2023/12/11 14:21:22;;;;;;;;;5.33;2.33;;;;;;;;5088506;28;30227;-76
2023/12/11 14:23:47;;;;;;;;;10.67;4.00;;;;;;;;5090728;28;27940;-78
2023/12/11 14:26:13;;;;;;;;;8.00;6.00;;;;;;;;5086582;28;28529;-76
2023/12/11 14:28:38;;;;;;;;;2.33;1.33;;;;;;;;5087334;27;28578;-78
2023/12/11 14:31:08;;;;;;;;;4.33;3.33;;;;;;;;5087873;28;28778;-78
2023/12/11 14:33:33;;;;;;;;;4.33;3.67;;;;;;;;5085639;28;28931;-78
2023/12/11 14:35:59;;;;;;;;;4.00;2.00;;;;;;;;5082860;27;28669;-78
2023/12/11 14:38:24;;;;;;;;;5.67;4.67;;;;;;;;5088074;28;28474;-77
2023/12/11 14:40:49;;;;;;;;;5.33;3.00;;;;;;;;5085738;27;29430;-79